Time;durP1;ratioP1;P1;durP2;ratioP2;P2;SDS_P1;SDS_P2;PMS_P1;PMS_P2;Temp;Humidity;BMP_temperature;BMP_pressure;BME280_temperature;BME280_humidity;BME280_pressure;Samples;Min_cycle;Max_cycle;Signal;HPM_P1;HPM_P2
2023/02/21 02:15:01;;;;;;;2.17;0.90;;;;;;;10.03;100.00;100643.44;4937600;28;20519;-81
2023/02/21 02:17:48;;;;;;;1.25;1.10;;;;;;;9.99;100.00;100637.59;4948872;28;20031;-78
2023/02/21 02:20:38;;;;;;;1.42;0.90;;;;;;;9.99;100.00;100637.59;4944129;28;20063;-78
2023/02/21 02:23:33;;;;;;;5.00;0.90;;;;;;;9.96;100.00;100629.94;4923192;29;20040;-81
2023/02/21 02:26:05;;;;;;;1.77;0.90;;;;;;;9.96;100.00;100624.66;4942965;28;20117;-81
2023/02/21 02:28:37;;;;;;;1.02;1.02;;;;;;;9.94;100.00;100626.59;4923270;29;20039;-81
2023/02/21 02:31:27;;;;;;;0.80;0.80;;;;;;;9.97;100.00;100622.88;4944069;28;20483;-81
2023/02/21 02:34:05;;;;;;;1.10;0.70;;;;;;;9.95;100.00;100617.72;4948561;28;20027;-81
2023/02/21 02:36:41;;;;;;;1.33;0.75;;;;;;;9.95;100.00;100627.44;4943480;28;20043;-81
2023/02/21 02:39:30;;;;;;;1.92;1.02;;;;;;;9.90;100.00;100614.66;4935204;28;20039;-81
2023/02/21 02:42:34;;;;;;;1.13;0.90;;;;;;;9.90;100.00;100606.72;4941060;28;20070;-81
2023/02/21 02:45:15;;;;;;;1.20;0.77;;;;;;;9.86;100.00;100613.25;4948490;28;20057;-81
2023/02/21 02:47:44;;;;;;;1.35;0.90;;;;;;;9.80;100.00;100609.34;4935943;28;20054;-81
2023/02/21 02:50:11;;;;;;;1.65;0.90;;;;;;;9.77;100.00;100612.25;4952172;28;20799;-81
2023/02/21 02:52:48;;;;;;;0.80;0.55;;;;;;;9.78;100.00;100611.28;4935754;29;20047;-81
2023/02/21 02:55:27;;;;;;;0.98;0.70;;;;;;;9.74;100.00;100608.09;4940041;28;20035;-81
2023/02/21 02:57:53;;;;;;;1.38;0.80;;;;;;;9.67;100.00;100593.75;4931744;29;20054;-81
2023/02/21 03:00:19;;;;;;;0.80;0.70;;;;;;;9.68;100.00;100601.53;4950844;29;20089;-82
2023/02/21 03:02:57;;;;;;;0.75;0.70;;;;;;;9.69;100.00;100597.09;4920540;28;20042;-81
2023/02/21 03:05:32;;;;;;;0.73;0.60;;;;;;;9.64;100.00;100592.22;4937254;28;20134;-81
2023/02/21 03:08:07;;;;;;;1.27;0.70;;;;;;;9.60;100.00;100588.19;4923128;28;20043;-81
2023/02/21 03:10:44;;;;;;;0.52;0.52;;;;;;;9.50;100.00;100588.16;4910435;29;20050;-81
2023/02/21 03:13:20;;;;;;;0.50;0.50;;;;;;;9.46;100.00;100578.00;4943085;28;20107;-81
2023/02/21 03:15:53;;;;;;;0.70;0.52;;;;;;;9.46;100.00;100583.28;4942703;28;20098;-81
2023/02/21 03:18:46;;;;;;;1.25;0.60;;;;;;;9.45;100.00;100576.31;4950387;28;20023;-81
2023/02/21 03:21:27;;;;;;;2.70;0.52;;;;;;;9.38;100.00;100578.66;4945480;28;20117;-82
2023/02/21 03:23:57;;;;;;;1.10;0.60;;;;;;;9.36;100.00;100580.59;4934473;28;20396;-81
2023/02/21 03:26:26;;;;;;;0.90;0.50;;;;;;;9.36;100.00;100575.31;4948486;28;20031;-81
2023/02/21 03:28:56;;;;;;;0.30;0.30;;;;;;;9.36;100.00;100575.31;4939977;28;20062;-82
2023/02/21 03:31:28;;;;;;;0.47;0.47;;;;;;;9.36;100.00;100568.25;4937578;28;20031;-81
2023/02/21 03:33:55;;;;;;;0.30;0.30;;;;;;;9.35;100.00;100574.47;4965415;28;20111;-82
2023/02/21 03:36:22;;;;;;;1.27;0.60;;;;;;;9.35;100.00;100571.84;4931987;28;20523;-81
2023/02/21 03:38:47;;;;;;;0.93;0.50;;;;;;;9.34;100.00;100571.97;4947088;28;20484;-82
2023/02/21 03:41:14;;;;;;;1.83;0.70;;;;;;;9.36;100.00;100562.97;4948761;28;20162;-81
2023/02/21 03:43:41;;;;;;;0.75;0.50;;;;;;;9.36;100.00;100559.50;4919104;28;20046;-81
2023/02/21 03:46:06;;;;;;;1.20;0.50;;;;;;;9.38;100.00;100558.38;4942700;28;20543;-81
2023/02/21 03:48:33;;;;;;;1.17;0.40;;;;;;;9.38;100.00;100560.19;4942662;28;20392;-82
2023/02/21 03:51:08;;;;;;;0.73;0.60;;;;;;;9.36;100.00;100551.56;4942182;28;20503;-82
2023/02/21 03:53:35;;;;;;;1.13;0.68;;;;;;;9.38;100.00;100552.28;4953927;28;20552;-82
2023/02/21 03:56:02;;;;;;;1.13;0.68;;;;;;;9.40;100.00;100547.69;4929065;29;20075;-81
2023/02/21 03:58:37;;;;;;;1.27;1.00;;;;;;;9.42;100.00;100549.25;4922093;29;20107;-82
2023/02/21 04:01:04;;;;;;;1.30;0.98;;;;;;;9.46;100.00;100549.78;4940206;28;20496;-82
2023/02/21 04:03:30;;;;;;;0.98;0.95;;;;;;;9.51;100.00;100541.47;4935528;28;20047;-82
2023/02/21 04:06:02;;;;;;;1.77;1.67;;;;;;;9.52;100.00;100537.88;4934387;28;20121;-82
2023/02/21 04:08:29;;;;;;;2.25;1.30;;;;;;;9.55;100.00;100535.81;4947524;28;20172;-81
2023/02/21 04:10:55;;;;;;;2.88;1.50;;;;;;;9.58;100.00;100528.56;4926863;29;20146;-82
2023/02/21 04:13:24;;;;;;;2.90;1.92;;;;;;;9.59;100.00;100522.34;4924494;29;20062;-81
2023/02/21 04:15:51;;;;;;;2.63;1.77;;;;;;;9.58;100.00;100526.78;4935022;28;20047;-81
2023/02/21 04:18:17;;;;;;;2.00;1.80;;;;;;;9.59;100.00;100523.16;4945187;28;20027;-81
2023/02/21 04:20:46;;;;;;;1.88;1.67;;;;;;;9.57;100.00;100517.22;4946422;28;20051;-82
2023/02/21 04:23:19;;;;;;;2.13;1.60;;;;;;;9.59;100.00;100528.44;4942074;28;20074;-82
2023/02/21 04:25:46;;;;;;;2.30;1.48;;;;;;;9.54;100.00;100515.66;4944986;28;20046;-82
2023/02/21 04:28:16;;;;;;;2.80;1.40;;;;;;;9.54;100.00;100514.81;4923434;28;20065;-81
2023/02/21 04:30:41;;;;;;;1.48;1.20;;;;;;;9.52;100.00;100514.13;4946199;28;20071;-82
2023/02/21 04:33:07;;;;;;;1.25;1.15;;;;;;;9.48;100.00;100513.56;4920769;29;20405;-82
2023/02/21 04:35:34;;;;;;;2.10;1.10;;;;;;;9.43;100.00;100506.06;4931303;29;20450;-82
2023/02/21 04:38:10;;;;;;;0.70;0.70;;;;;;;9.41;100.00;100507.97;4940820;28;20043;-82
2023/02/21 04:40:35;;;;;;;1.00;0.70;;;;;;;9.38;100.00;100502.97;4950581;28;20086;-82
2023/02/21 04:43:01;;;;;;;2.15;0.60;;;;;;;9.38;100.00;100504.81;4949548;28;20492;-82
2023/02/21 04:45:27;;;;;;;2.45;0.57;;;;;;;9.38;100.00;100508.25;4950241;28;20036;-82
2023/02/21 04:47:53;;;;;;;0.50;0.50;;;;;;;9.33;100.00;100505.22;4932562;29;20039;-81
2023/02/21 04:50:19;;;;;;;1.23;0.40;;;;;;;9.32;100.00;100502.72;4946978;28;20043;-81
2023/02/21 04:52:46;;;;;;;1.65;0.40;;;;;;;9.38;100.00;100499.53;4957625;28;20034;-81
2023/02/21 04:55:13;;;;;;;0.65;0.50;;;;;;;9.41;100.00;100493.97;4936503;29;20031;-82
2023/02/21 04:57:39;;;;;;;1.70;0.82;;;;;;;9.42;100.00;100500.91;4950784;28;20079;-81
2023/02/21 05:00:06;;;;;;;2.80;0.60;;;;;;;9.44;100.00;100496.34;4958461;28;20061;-81
2023/02/21 05:02:33;;;;;;;0.60;0.60;;;;;;;9.46;100.00;100493.56;4949738;28;20035;-81
2023/02/21 05:04:59;;;;;;;4.43;4.07;;;;;;;9.46;100.00;100485.66;4948320;28;20070;-82
2023/02/21 05:07:24;;;;;;;0.90;0.80;;;;;;;9.44;100.00;100485.78;4954966;28;20033;-81
2023/02/21 05:09:50;;;;;;;0.65;0.50;;;;;;;9.42;100.00;100490.34;4944362;28;20153;-82
2023/02/21 05:12:16;;;;;;;1.90;0.50;;;;;;;9.38;100.00;100487.16;4933544;29;20087;-81
2023/02/21 05:14:42;;;;;;;0.32;0.32;;;;;;;9.36;100.00;100485.63;4952913;28;20043;-81
2023/02/21 05:17:08;;;;;;;0.50;0.50;;;;;;;9.38;100.00;100483.69;4946725;28;20074;-81
2023/02/21 05:19:34;;;;;;;0.32;0.32;;;;;;;9.39;100.00;100486.19;4962330;28;20047;-81
2023/02/21 05:22:02;;;;;;;0.52;0.50;;;;;;;9.43;100.00;100481.47;4949776;28;20031;-82
2023/02/21 05:24:29;;;;;;;1.45;0.73;;;;;;;9.45;100.00;100466.34;4953363;28;20039;-81
2023/02/21 05:26:57;;;;;;;1.08;0.60;;;;;;;9.42;100.00;100470.09;4934254;29;20031;-81
2023/02/21 05:29:23;;;;;;;1.15;0.70;;;;;;;9.33;100.00;100459.53;4948166;28;20035;-81
2023/02/21 05:31:48;;;;;;;1.88;0.60;;;;;;;9.27;100.00;100464.34;4950580;28;20031;-81
2023/02/21 05:34:16;;;;;;;0.30;0.30;;;;;;;9.23;100.00;100470.03;4946743;28;20034;-82
2023/02/21 05:36:42;;;;;;;1.00;0.30;;;;;;;9.14;100.00;100459.31;4943101;28;20109;-81
2023/02/21 05:39:08;;;;;;;0.32;0.30;;;;;;;9.10;100.00;100468.47;4934835;29;20527;-81
2023/02/21 05:41:34;;;;;;;0.10;0.10;;;;;;;9.02;100.00;100461.25;4936916;28;20042;-78
2023/02/21 05:44:01;;;;;;;0.20;0.20;;;;;;;8.94;100.00;100463.72;4950763;28;20031;-77
2023/02/21 05:46:31;;;;;;;0.17;0.10;;;;;;;8.89;100.00;100460.63;4946966;28;20054;-81
2023/02/21 05:48:59;;;;;;;1.05;0.10;;;;;;;8.83;100.00;100456.75;4948287;28;20031;-82
2023/02/21 05:51:26;;;;;;;0.20;0.20;;;;;;;8.80;100.00;100457.00;4934768;28;20081;-81
2023/02/21 05:53:52;;;;;;;0.95;0.20;;;;;;;8.76;100.00;100453.78;4948661;28;20376;-82
2023/02/21 05:56:20;;;;;;;0.20;0.10;;;;;;;8.74;100.00;100453.09;4949071;28;20042;-82
2023/02/21 05:58:46;;;;;;;0.10;0.10;;;;;;;8.75;100.00;100446.84;4960036;28;20066;-81
2023/02/21 06:01:12;;;;;;;0.13;0.00;;;;;;;8.78;100.00;100451.03;4952331;28;20387;-82
2023/02/21 06:03:38;;;;;;;0.47;0.10;;;;;;;8.83;100.00;100447.97;4959104;28;20364;-82
2023/02/21 06:06:04;;;;;;;0.73;0.10;;;;;;;8.89;100.00;100455.34;4941267;28;20486;-81
2023/02/21 06:08:30;;;;;;;0.10;0.00;;;;;;;8.92;100.00;100434.00;4976967;28;20035;-82
2023/02/21 06:10:56;;;;;;;0.30;0.13;;;;;;;8.96;100.00;100437.22;4955814;28;20121;-82
2023/02/21 06:13:22;;;;;;;0.00;0.00;;;;;;;8.90;100.00;100433.31;4907706;28;20619;-81
2023/02/21 06:15:47;;;;;;;0.90;0.20;;;;;;;8.89;100.00;100427.22;4948547;28;20039;-81
2023/02/21 06:18:14;;;;;;;2.38;0.05;;;;;;;8.92;100.00;100429.56;4939837;28;20415;-81
2023/02/21 06:20:40;;;;;;;0.15;0.10;;;;;;;8.96;100.00;100431.94;4967620;28;20042;-82
2023/02/21 06:23:06;;;;;;;0.10;0.10;;;;;;;9.01;100.00;100429.75;4969354;28;20070;-81
2023/02/21 06:25:32;;;;;;;0.70;0.00;;;;;;;9.03;100.00;100427.81;4965887;28;20053;-81
2023/02/21 06:27:58;;;;;;;0.13;0.00;;;;;;;9.03;100.00;100422.53;4954059;28;20704;-81
2023/02/21 06:30:24;;;;;;;0.32;0.03;;;;;;;9.05;100.00;100420.59;4952722;28;20031;-81
2023/02/21 06:32:50;;;;;;;0.68;0.10;;;;;;;9.04;100.00;100425.03;4946663;28;20113;-81
2023/02/21 06:35:15;;;;;;;0.00;0.00;;;;;;;9.04;100.00;100427.69;4878323;28;20039;-82
2023/02/21 06:37:41;;;;;;;0.38;0.00;;;;;;;9.01;100.00;100416.56;4960597;28;20114;-81
2023/02/21 06:40:07;;;;;;;0.80;0.10;;;;;;;8.99;100.00;100414.06;4956187;28;20074;-81
2023/02/21 06:42:33;;;;;;;2.28;0.20;;;;;;;8.96;100.00;100422.25;4950084;28;20049;-81
2023/02/21 06:44:59;;;;;;;0.10;0.10;;;;;;;8.98;100.00;100424.75;4956393;28;20468;-81
2023/02/21 06:47:25;;;;;;;0.10;0.10;;;;;;;8.97;100.00;100423.91;4965271;28;20038;-81
2023/02/21 06:49:50;;;;;;;0.20;0.10;;;;;;;8.95;100.00;100415.28;4965444;28;20031;-81
2023/02/21 06:52:16;;;;;;;1.17;0.10;;;;;;;8.96;100.00;100410.84;4954330;28;20042;-82
2023/02/21 06:54:42;;;;;;;2.17;0.10;;;;;;;8.93;100.00;100412.78;4970014;28;20030;-80
2023/02/21 06:57:08;;;;;;;0.20;0.10;;;;;;;8.91;100.00;100406.81;4899034;28;20047;-76
2023/02/21 06:59:33;;;;;;;0.00;0.00;;;;;;;8.91;100.00;100405.97;4965427;28;20034;-76
2023/02/21 07:02:01;;;;;;;0.10;0.10;;;;;;;8.89;100.00;100397.38;4950042;28;20557;-81
2023/02/21 07:04:27;;;;;;;0.68;0.10;;;;;;;8.92;100.00;100402.38;4964774;28;20031;-81
2023/02/21 07:06:53;;;;;;;1.27;0.00;;;;;;;8.92;100.00;100405.84;4949741;28;20042;-80
2023/02/21 07:09:19;;;;;;;0.43;0.10;;;;;;;8.95;100.00;100402.09;4939786;28;20042;-81
2023/02/21 07:11:45;;;;;;;0.35;0.10;;;;;;;8.95;100.00;100394.19;4953085;28;20042;-80
2023/02/21 07:14:12;;;;;;;0.15;0.10;;;;;;;8.95;100.00;100394.19;4950027;28;20076;-81
2023/02/21 07:16:37;;;;;;;1.75;0.30;;;;;;;8.96;100.00;100401.16;4971454;28;20035;-80
2023/02/21 07:19:03;;;;;;;0.10;0.10;;;;;;;8.97;100.00;100401.97;4939595;28;20074;-80
2023/02/21 07:21:29;;;;;;;0.30;0.10;;;;;;;8.95;100.00;100399.47;4966407;28;20038;-80
2023/02/21 07:23:55;;;;;;;2.00;0.20;;;;;;;8.94;100.00;100387.25;4952246;28;20042;-82
2023/02/21 07:26:21;;;;;;;1.23;0.10;;;;;;;8.91;100.00;100391.00;4950560;28;20069;-82
2023/02/21 07:28:48;;;;;;;0.10;0.10;;;;;;;8.92;100.00;100381.28;4946339;28;20030;-81
2023/02/21 07:31:14;;;;;;;1.02;0.28;;;;;;;8.90;100.00;100389.31;4945421;28;20034;-82
2023/02/21 07:33:39;;;;;;;0.82;0.20;;;;;;;8.89;100.00;100384.19;4950139;28;20113;-82
2023/02/21 07:36:06;;;;;;;0.20;0.20;;;;;;;8.84;100.00;100386.41;4956293;28;20130;-82
2023/02/21 07:38:31;;;;;;;0.50;0.13;;;;;;;8.80;100.00;100378.78;4952443;28;20031;-82
2023/02/21 07:40:59;;;;;;;0.25;0.17;;;;;;;8.80;100.00;100386.69;4966926;28;20045;-82
2023/02/21 07:43:26;;;;;;;0.30;0.17;;;;;;;8.79;100.00;100392.09;4978498;28;20026;-82
2023/02/21 07:45:52;;;;;;;1.65;0.30;;;;;;;8.78;100.00;100395.69;4950709;28;20030;-82
2023/02/21 07:48:18;;;;;;;0.40;0.17;;;;;;;8.77;100.00;100388.75;4955211;28;20034;-82
2023/02/21 07:50:44;;;;;;;0.32;0.32;;;;;;;8.72;100.00;100375.97;4970598;28;20042;-82
2023/02/21 07:53:11;;;;;;;0.82;0.25;;;;;;;8.67;100.00;100386.91;4948630;28;20039;-82
2023/02/21 07:55:38;;;;;;;0.45;0.20;;;;;;;8.63;100.00;100382.84;4952903;28;20043;-82
2023/02/21 07:58:04;;;;;;;0.20;0.20;;;;;;;8.61;100.00;100378.69;4934734;28;20059;-80
2023/02/21 08:00:30;;;;;;;0.40;0.20;;;;;;;8.58;100.00;100387.72;4962799;28;20093;-82
2023/02/21 08:02:56;;;;;;;0.17;0.17;;;;;;;8.57;100.00;100380.75;4945042;28;20043;-81
2023/02/21 08:05:22;;;;;;;0.20;0.20;;;;;;;8.56;100.00;100390.47;4953269;28;20035;-82
2023/02/21 08:07:48;;;;;;;0.20;0.20;;;;;;;8.53;100.00;100385.44;4968377;28;20039;-81
2023/02/21 08:10:21;;;;;;;1.85;0.22;;;;;;;8.55;100.00;100383.53;4967014;28;20035;-82
2023/02/21 08:12:46;;;;;;;0.35;0.10;;;;;;;8.53;100.00;100387.25;4951063;28;20373;-81
2023/02/21 08:15:12;;;;;;;1.58;0.22;;;;;;;8.52;100.00;100381.13;4952257;28;20085;-82
2023/02/21 08:17:38;;;;;;;0.30;0.22;;;;;;;8.58;100.00;100381.59;4962889;28;20118;-78
2023/02/21 08:20:05;;;;;;;0.35;0.20;;;;;;;8.61;100.00;100381.34;4970533;28;20034;-78
2023/02/21 08:22:31;;;;;;;1.55;0.30;;;;;;;8.60;100.00;100380.50;4937525;28;20034;-82
2023/02/21 08:24:56;;;;;;;0.50;0.30;;;;;;;8.61;100.00;100384.81;4969328;28;20419;-81
2023/02/21 08:27:22;;;;;;;0.28;0.20;;;;;;;8.64;100.00;100379.28;4968042;28;20476;-82
2023/02/21 08:29:51;;;;;;;2.28;0.30;;;;;;;8.67;100.00;100373.75;4960953;28;20487;-82
2023/02/21 08:32:18;;;;;;;0.32;0.30;;;;;;;8.67;100.00;100381.66;4966118;28;20042;-82
2023/02/21 08:34:45;;;;;;;0.35;0.30;;;;;;;8.68;100.00;100374.56;4969329;28;20065;-81
2023/02/21 08:37:18;;;;;;;0.25;0.20;;;;;;;8.66;100.00;100376.50;4962828;28;20058;-81
2023/02/21 08:39:51;;;;;;;0.30;0.30;;;;;;;8.67;100.00;100378.16;4935060;28;20130;-81
2023/02/21 08:42:18;;;;;;;0.13;0.13;;;;;;;8.65;100.00;100377.47;4952617;28;20038;-80
2023/02/21 08:44:45;;;;;;;0.10;0.10;;;;;;;8.65;100.00;100380.09;4969402;28;20070;-81
2023/02/21 08:47:13;;;;;;;0.10;0.10;;;;;;;8.64;100.00;100386.34;4968166;28;20041;-80
2023/02/21 08:49:39;;;;;;;0.15;0.15;;;;;;;8.63;100.00;100374.94;4963478;28;20510;-81
2023/02/21 08:52:06;;;;;;;0.13;0.10;;;;;;;8.68;100.00;100371.91;4966420;28;20031;-80
2023/02/21 08:54:32;;;;;;;1.95;0.20;;;;;;;8.68;100.00;100380.66;4966932;28;20027;-80
2023/02/21 08:57:00;;;;;;;0.10;0.10;;;;;;;8.71;100.00;100370.84;4943803;28;20058;-82
2023/02/21 08:59:27;;;;;;;0.10;0.10;;;;;;;8.71;100.00;100365.56;4947904;28;20037;-80
2023/02/21 09:01:53;;;;;;;0.15;0.13;;;;;;;8.73;100.00;100372.34;4965005;28;20046;-80
2023/02/21 09:04:19;;;;;;;0.35;0.13;;;;;;;8.71;100.00;100366.41;4929197;28;20038;-81
2023/02/21 09:06:45;;;;;;;0.63;0.25;;;;;;;8.73;100.00;100361.00;4932667;28;20502;-82
2023/02/21 09:09:11;;;;;;;0.22;0.20;;;;;;;8.72;100.00;100367.22;4949364;28;20113;-81
2023/02/21 09:11:38;;;;;;;0.60;0.17;;;;;;;8.75;100.00;100354.63;4926226;28;20510;-82
2023/02/21 09:14:05;;;;;;;0.65;0.20;;;;;;;8.80;100.00;100364.75;4950023;28;20162;-81
2023/02/21 09:16:31;;;;;;;0.10;0.10;;;;;;;8.87;100.00;100368.50;4935499;28;20031;-81
2023/02/21 09:19:00;;;;;;;0.50;0.25;;;;;;;8.91;100.00;100361.16;4966322;28;20045;-82
2023/02/21 09:21:26;;;;;;;0.30;0.30;;;;;;;8.94;100.00;100363.53;4965310;28;20030;-82
2023/02/21 09:23:58;;;;;;;0.20;0.20;;;;;;;8.98;100.00;100351.75;4965773;28;20031;-82
2023/02/21 09:26:25;;;;;;;0.40;0.20;;;;;;;8.98;100.00;100356.19;4950926;28;20482;-82
2023/02/21 09:28:51;;;;;;;0.45;0.10;;;;;;;9.01;100.00;100356.78;4959147;28;20062;-82
2023/02/21 09:31:18;;;;;;;0.40;0.20;;;;;;;9.03;100.00;100349.53;4950808;28;20259;-81
2023/02/21 09:33:44;;;;;;;1.75;0.60;;;;;;;9.01;100.00;100345.38;4944564;28;20550;-82
2023/02/21 09:36:11;;;;;;;0.25;0.10;;;;;;;9.01;100.00;100353.28;4950981;28;20038;-80
2023/02/21 09:38:40;;;;;;;0.20;0.10;;;;;;;8.98;100.00;100343.81;4948873;28;20038;-81
2023/02/21 09:41:09;;;;;;;0.10;0.10;;;;;;;9.01;100.00;100342.75;4967211;28;20085;-81
2023/02/21 09:43:47;;;;;;;1.08;0.10;;;;;;;9.06;100.00;100336.06;4951917;28;20395;-81
2023/02/21 09:46:34;;;;;;;0.10;0.10;;;;;;;9.01;100.00;100326.94;4967356;28;20667;-81
2023/02/21 09:49:03;;;;;;;0.13;0.10;;;;;;;9.03;100.00;100331.09;4951814;28;20086;-81
2023/02/21 09:51:31;;;;;;;0.20;0.08;;;;;;;9.06;100.00;100327.34;4919556;28;20804;-81
2023/02/21 09:54:00;;;;;;;0.20;0.10;;;;;;;9.03;100.00;100322.34;4969063;28;20163;-81
2023/02/21 09:56:34;;;;;;;0.10;0.03;;;;;;;9.11;100.00;100324.31;4951068;28;20063;-81
2023/02/21 09:59:00;;;;;;;0.00;0.00;;;;;;;9.15;100.00;100328.31;4960697;28;20042;-81
2023/02/21 10:02:04;;;;;;;0.10;0.10;;;;;;;9.27;100.00;100323.75;4935532;28;20041;-81
2023/02/21 10:04:48;;;;;;;0.20;0.15;;;;;;;9.38;100.00;100318.31;4886285;29;20497;-81
2023/02/21 10:07:46;;;;;;;0.10;0.10;;;;;;;9.43;100.00;100323.19;4847771;29;20048;-82
2023/02/21 10:10:20;;;;;;;1.08;0.10;;;;;;;9.46;100.00;100317.63;4916261;28;20093;-81
2023/02/21 10:12:53;;;;;;;0.47;0.13;;;;;;;9.53;100.00;100310.81;4956085;28;20027;-78
2023/02/21 10:15:38;;;;;;;1.85;0.17;;;;;;;9.61;100.00;100306.63;4959555;28;20077;-78
2023/02/21 10:18:29;;;;;;;0.75;0.10;;;;;;;9.68;100.00;100315.66;4946718;28;20054;-81
2023/02/21 10:21:00;;;;;;;0.05;0.00;;;;;;;9.69;100.00;100309.41;4949234;28;20046;-81
2023/02/21 10:23:46;;;;;;;0.10;0.00;;;;;;;9.65;100.00;100298.28;4949664;28;20031;-81
2023/02/21 10:26:19;;;;;;;0.15;0.00;;;;;;;9.64;100.00;100307.19;4972402;28;20058;-81
2023/02/21 10:28:44;;;;;;;0.10;0.10;;;;;;;9.67;100.00;100303.44;4972172;28;20041;-81
2023/02/21 10:31:18;;;;;;;0.00;0.00;;;;;;;9.68;100.00;100310.38;4954788;28;20034;-81
2023/02/21 10:33:43;;;;;;;0.10;0.00;;;;;;;9.67;100.00;100312.19;4948003;28;20201;-81
2023/02/21 10:36:17;;;;;;;0.13;0.10;;;;;;;9.75;100.00;100303.56;4955119;28;20035;-81
2023/02/21 10:39:06;;;;;;;0.82;0.13;;;;;;;9.85;100.00;100300.06;4958006;28;20023;-81
2023/02/21 10:41:35;;;;;;;0.03;0.03;;;;;;;9.94;100.00;100301.84;4942068;28;20054;-82
2023/02/21 10:44:09;;;;;;;0.45;0.10;;;;;;;10.02;100.00;100301.13;4937981;29;20082;-81
2023/02/21 10:47:01;;;;;;;0.10;0.10;;;;;;;10.12;100.00;100296.66;4967857;28;20031;-81
2023/02/21 10:49:39;;;;;;;0.10;0.10;;;;;;;10.19;100.00;100291.63;4970591;28;20027;-81
2023/02/21 10:52:08;;;;;;;0.10;0.08;;;;;;;10.28;100.00;100292.53;4932192;29;20039;-81
2023/02/21 10:54:34;;;;;;;0.03;0.00;;;;;;;10.33;100.00;100278.88;4948403;28;20452;-82
2023/02/21 10:57:03;;;;;;;0.10;0.10;;;;;;;10.45;100.00;100276.91;4921057;28;20510;-82
2023/02/21 10:59:32;;;;;;;0.10;0.00;;;;;;;10.50;100.00;100282.59;4969907;28;20034;-81
2023/02/21 11:02:00;;;;;;;0.00;0.00;;;;;;;10.50;100.00;100277.28;4946056;28;20296;-81
2023/02/21 11:04:37;;;;;;;0.30;0.03;;;;;;;10.53;100.00;100279.63;4913239;28;20692;-81
2023/02/21 11:07:10;;;;;;;0.00;0.00;;;;;;;10.59;100.00;100278.25;4941531;28;20030;-81
2023/02/21 11:09:46;;;;;;;0.40;0.20;;;;;;;10.57;100.00;100275.75;4953600;28;20047;-82
2023/02/21 11:12:15;;;;;;;0.75;0.20;;;;;;;10.59;100.00;100271.13;4937759;28;20084;-81
2023/02/21 11:14:42;;;;;;;0.00;0.00;;;;;;;10.62;100.00;100264.72;4964844;28;20035;-81
2023/02/21 11:17:14;;;;;;;0.10;0.10;;;;;;;10.65;100.00;100265.22;4972826;28;20038;-82
2023/02/21 11:19:53;;;;;;;0.03;0.00;;;;;;;10.74;100.00;100266.16;4937391;28;20046;-82
2023/02/21 11:22:32;;;;;;;0.00;0.00;;;;;;;10.76;100.00;100263.38;4938733;28;20077;-81
2023/02/21 11:25:22;;;;;;;0.10;0.08;;;;;;;10.76;100.00;100258.09;4971713;28;20111;-82
2023/02/21 11:28:03;;;;;;;0.00;0.00;;;;;;;10.78;100.00;100249.00;4959614;28;20038;-81
2023/02/21 11:30:32;;;;;;;0.10;0.03;;;;;;;10.79;100.00;100248.03;4953750;28;20035;-82
2023/02/21 11:33:00;;;;;;;0.10;0.10;;;;;;;10.86;100.00;100247.44;4952608;28;20049;-82
2023/02/21 11:35:42;;;;;;;0.00;0.00;;;;;;;10.86;100.00;100242.16;4961624;28;20110;-82
2023/02/21 11:38:29;;;;;;;0.20;0.00;;;;;;;10.86;100.00;100240.31;4964227;28;20039;-82
2023/02/21 11:40:56;;;;;;;0.00;0.00;;;;;;;10.82;100.00;100238.97;4953945;28;20550;-80
2023/02/21 11:43:27;;;;;;;0.10;0.10;;;;;;;10.83;100.00;100242.47;4965780;28;20034;-81
2023/02/21 11:46:04;;;;;;;0.05;0.05;;;;;;;10.86;100.00;100237.69;4954326;28;20625;-81
2023/02/21 11:49:02;;;;;;;0.00;0.00;;;;;;;10.88;100.00;100232.25;4969864;28;20049;-81
2023/02/21 11:51:36;;;;;;;0.70;0.40;;;;;;;10.92;100.00;100233.63;4965398;28;20058;-81
2023/02/21 11:54:04;;;;;;;1.60;0.90;;;;;;;10.96;100.00;100221.75;4971139;28;20038;-80
2023/02/21 11:57:03;;;;;;;1.85;0.30;;;;;;;10.98;100.00;100221.59;4936992;28;20380;-81
2023/02/21 11:59:47;;;;;;;0.20;0.10;;;;;;;10.90;100.00;100215.25;4974362;28;20490;-80
2023/02/21 12:02:49;;;;;;;0.00;0.00;;;;;;;10.91;100.00;100221.34;4948368;28;20031;-81
2023/02/21 12:06:08;;;;;;;0.22;0.10;;;;;;;10.89;100.00;100212.75;4969951;28;20081;-81
2023/02/21 12:08:50;;;;;;;0.30;0.00;;;;;;;10.95;100.00;100204.22;4855064;29;20527;-81
2023/02/21 12:11:26;;;;;;;0.00;0.00;;;;;;;11.01;100.00;100208.91;4903135;28;20065;-81
2023/02/21 12:14:06;;;;;;;0.10;0.00;;;;;;;11.04;100.00;100192.72;4969581;28;20547;-82
2023/02/21 12:16:50;;;;;;;0.00;0.00;;;;;;;11.13;100.00;100188.31;4951769;28;20042;-81
2023/02/21 12:19:51;;;;;;;0.00;0.00;;;;;;;11.20;100.00;100191.16;4951581;28;20041;-80
2023/02/21 12:22:44;;;;;;;0.00;0.00;;;;;;;11.22;100.00;100177.78;4966614;28;20030;-81
2023/02/21 12:25:22;;;;;;;0.00;0.00;;;;;;;11.27;100.00;100179.00;4948270;28;20178;-81
2023/02/21 12:28:08;;;;;;;0.00;0.00;;;;;;;11.33;100.00;100169.59;4970978;28;20022;-81
2023/02/21 12:30:40;;;;;;;0.10;0.10;;;;;;;11.32;100.00;100170.59;4954686;28;20084;-81
2023/02/21 12:33:06;;;;;;;0.00;0.00;;;;;;;11.35;100.00;100156.22;4934419;29;20460;-80
2023/02/21 12:35:50;;;;;;;0.00;0.00;;;;;;;11.39;100.00;100145.16;4959537;28;20027;-81
2023/02/21 12:38:42;;;;;;;0.05;0.00;;;;;;;11.41;100.00;100150.28;4967986;28;20046;-81
2023/02/21 12:41:26;;;;;;;0.32;0.10;;;;;;;11.43;100.00;100144.84;4969003;28;20272;-81
2023/02/21 12:44:13;;;;;;;0.10;0.10;;;;;;;11.42;100.00;100159.88;4968537;28;20038;-81
2023/02/21 12:46:53;;;;;;;0.13;0.10;;;;;;;11.63;100.00;100151.56;4967606;28;20041;-81
2023/02/21 12:49:56;;;;;;;0.00;0.00;;;;;;;11.68;100.00;100145.78;4905464;28;20510;-82
2023/02/21 12:53:01;;;;;;;0.00;0.00;;;;;;;11.68;100.00;100137.00;4967290;28;20109;-82
2023/02/21 12:55:41;;;;;;;0.43;0.13;;;;;;;11.76;100.00;100139.69;4921473;28;20381;-81
2023/02/21 12:58:39;;;;;;;0.20;0.10;;;;;;;11.82;100.00;100131.09;4950510;28;20043;-81
2023/02/21 13:01:10;;;;;;;1.10;0.10;;;;;;;11.84;100.00;100130.94;4969471;28;20392;-81
2023/02/21 13:03:55;;;;;;;0.13;0.10;;;;;;;11.81;100.00;100118.03;4960714;28;20450;-81
2023/02/21 13:06:32;;;;;;;2.25;0.03;;;;;;;11.76;100.00;100115.88;4889589;28;20114;-81
2023/02/21 13:09:13;;;;;;;0.20;0.10;;;;;;;11.72;100.00;100112.69;4966443;28;20031;-81
2023/02/21 13:11:41;;;;;;;0.05;0.05;;;;;;;11.71;100.00;100119.00;4957448;28;20035;-81
2023/02/21 13:14:15;;;;;;;0.20;0.10;;;;;;;11.82;100.00;100117.88;4974876;28;20029;-81
2023/02/21 13:16:41;;;;;;;0.10;0.10;;;;;;;11.85;100.00;100112.25;4974558;28;20566;-81
2023/02/21 13:19:10;;;;;;;0.70;0.10;;;;;;;11.90;100.00;100112.59;4961524;28;20154;-81
2023/02/21 13:21:42;;;;;;;0.10;0.10;;;;;;;11.87;100.00;100097.03;4975987;28;20124;-81
2023/02/21 13:24:29;;;;;;;0.57;0.08;;;;;;;11.93;100.00;100098.19;4971426;28;20502;-81
2023/02/21 13:26:59;;;;;;;0.30;0.10;;;;;;;11.98;100.00;100095.06;4954422;28;20035;-80
2023/02/21 13:29:35;;;;;;;0.10;0.10;;;;;;;12.04;100.00;100100.53;4941066;28;20039;-81
2023/02/21 13:32:07;;;;;;;0.10;0.10;;;;;;;12.13;100.00;100093.50;4976211;28;20114;-81
2023/02/21 13:35:00;;;;;;;0.85;0.20;;;;;;;12.17;100.00;100096.63;4973792;28;20038;-81
2023/02/21 13:37:30;;;;;;;0.30;0.17;;;;;;;12.34;100.00;100084.22;4965037;28;20479;-81
2023/02/21 13:40:06;;;;;;;0.25;0.10;;;;;;;12.51;100.00;100078.94;4956948;28;20026;-81
2023/02/21 13:42:37;;;;;;;0.32;0.10;;;;;;;12.52;100.00;100081.41;4967610;28;20042;-81
2023/02/21 13:45:06;;;;;;;0.20;0.10;;;;;;;12.45;100.00;100075.13;4973555;28;20034;-81
2023/02/21 13:48:04;;;;;;;0.30;0.10;;;;;;;12.40;100.00;100067.66;4954432;28;20489;-82
2023/02/21 13:50:33;;;;;;;0.10;0.10;;;;;;;12.32;100.00;100062.38;4866399;28;20503;-81
2023/02/21 13:53:08;;;;;;;0.20;0.10;;;;;;;12.33;100.00;100048.09;4967162;28;20491;-82
2023/02/21 13:55:35;;;;;;;0.03;0.03;;;;;;;12.35;100.00;100059.38;4954212;28;20038;-81
2023/02/21 13:58:01;;;;;;;0.08;0.08;;;;;;;12.25;100.00;100058.69;4970809;28;20105;-81